Time;durP1;ratioP1;P1;durP2;ratioP2;P2;SDS_P1;SDS_P2;PMS_P1;PMS_P2;Temp;Humidity;BMP_temperature;BMP_pressure;BME280_temperature;BME280_humidity;BME280_pressure;Samples;Min_cycle;Max_cycle;Signal;HPM_P1;HPM_P2
2022/06/29 00:01:28;;;;;;;10.25;9.25;;;;;;;22.14;100.00;99743.96;1758622;79;21031;-63
2022/06/29 00:03:55;;;;;;;11.97;9.60;;;;;;;22.10;100.00;99741.68;1796983;79;21593;-64
2022/06/29 00:06:22;;;;;;;9.73;8.80;;;;;;;22.06;100.00;99743.53;1766546;79;21015;-65
2022/06/29 00:08:48;;;;;;;10.68;9.58;;;;;;;22.01;100.00;99741.55;1787833;79;21058;-64
2022/06/29 00:11:15;;;;;;;10.48;9.33;;;;;;;22.02;100.00;99755.08;1718577;83;21012;-64
2022/06/29 00:13:42;;;;;;;11.22;9.20;;;;;;;22.00;100.00;99762.13;1775569;80;21134;-64
2022/06/29 00:16:09;;;;;;;11.53;9.28;;;;;;;21.98;100.00;99757.49;1771554;79;21550;-65
2022/06/29 00:18:37;;;;;;;10.03;9.10;;;;;;;21.98;100.00;99759.69;1781015;79;21076;-64
2022/06/29 00:21:04;;;;;;;9.88;8.98;;;;;;;21.96;100.00;99749.55;1781786;79;20997;-64
2022/06/29 00:23:31;;;;;;;10.65;9.65;;;;;;;21.97;100.00;99753.09;1777656;80;21098;-64
2022/06/29 00:25:57;;;;;;;10.40;9.30;;;;;;;21.94;100.00;99754.61;1778111;79;20973;-65
2022/06/29 00:28:25;;;;;;;10.58;9.50;;;;;;;21.95;100.00;99753.46;1764891;79;21036;-63
2022/06/29 00:30:51;;;;;;;10.00;9.00;;;;;;;22.00;100.00;99751.05;1791341;79;21453;-64
2022/06/29 00:33:18;;;;;;;9.33;8.43;;;;;;;22.02;100.00;99752.88;1703876;83;21047;-64
2022/06/29 00:35:44;;;;;;;11.83;9.20;;;;;;;22.04;100.00;99759.69;1790205;79;20991;-64
2022/06/29 00:38:11;;;;;;;10.35;9.20;;;;;;;22.06;100.00;99756.58;1771064;79;21058;-64
2022/06/29 00:40:37;;;;;;;10.35;9.28;;;;;;;22.03;100.00;99765.02;1779252;80;21447;-64
2022/06/29 00:43:04;;;;;;;11.93;9.55;;;;;;;21.99;100.00;99761.89;1775071;79;21067;-64
2022/06/29 00:45:32;;;;;;;9.95;8.98;;;;;;;21.95;100.00;99763.16;1783470;79;21011;-64
2022/06/29 00:47:58;;;;;;;11.40;10.20;;;;;;;21.94;100.00;99761.53;1782519;79;21118;-64
2022/06/29 00:50:27;;;;;;;11.63;10.50;;;;;;;21.92;100.00;99761.09;1786671;79;21081;-63
2022/06/29 00:52:53;;;;;;;12.40;10.78;;;;;;;21.86;100.00;99762.42;1778380;79;21043;-64
2022/06/29 00:55:20;;;;;;;11.63;10.23;;;;;;;21.86;100.00;99761.64;1784901;80;21050;-64
2022/06/29 00:57:47;;;;;;;11.50;10.30;;;;;;;21.79;100.00;99756.64;1774634;79;21652;-63
2022/06/29 01:00:15;;;;;;;11.88;10.53;;;;;;;21.77;100.00;99754.23;1783404;79;21479;-64
2022/06/29 01:02:42;;;;;;;13.62;10.93;;;;;;;21.77;100.00;99764.50;1777555;79;21016;-64
2022/06/29 01:05:09;;;;;;;11.40;9.98;;;;;;;21.76;100.00;99760.11;1720460;82;21400;-64
2022/06/29 01:07:36;;;;;;;12.23;10.32;;;;;;;21.74;100.00;99762.42;1694728;83;20985;-64
2022/06/29 01:10:04;;;;;;;12.55;10.63;;;;;;;21.69;100.00;99759.30;1713687;82;20988;-63
2022/06/29 01:12:31;;;;;;;13.93;11.35;;;;;;;21.69;100.00;99766.80;1753403;80;20926;-64
2022/06/29 01:14:57;;;;;;;11.90;10.80;;;;;;;21.66;100.00;99761.95;1761219;80;21463;-64
2022/06/29 01:17:25;;;;;;;12.33;11.10;;;;;;;21.58;100.00;99762.28;1763621;79;20959;-65
2022/06/29 01:19:52;;;;;;;11.63;10.60;;;;;;;21.56;100.00;99768.75;1770866;79;21619;-64
2022/06/29 01:22:21;;;;;;;13.05;11.38;;;;;;;21.49;100.00;99766.31;1783110;78;20940;-64
2022/06/29 01:24:48;;;;;;;15.13;11.70;;;;;;;21.27;100.00;99773.06;1760464;79;21672;-63
2022/06/29 01:27:16;;;;;;;12.98;11.68;;;;;;;21.12;100.00;99773.70;1767731;79;21459;-64
2022/06/29 01:29:43;;;;;;;13.78;12.20;;;;;;;21.06;100.00;99783.34;1764699;79;21034;-64
2022/06/29 01:32:10;;;;;;;15.38;12.15;;;;;;;21.01;100.00;99788.50;1769426;79;20937;-64
2022/06/29 01:34:36;;;;;;;14.78;11.97;;;;;;;20.95;100.00;99791.25;1777815;79;21036;-64
2022/06/29 01:37:03;;;;;;;14.00;11.85;;;;;;;20.94;100.00;99782.70;1782981;79;20975;-64
2022/06/29 01:39:30;;;;;;;12.88;11.57;;;;;;;20.97;100.00;99786.20;1779590;79;21553;-64
2022/06/29 01:41:57;;;;;;;13.25;11.30;;;;;;;20.99;100.00;99792.77;1767250;80;21043;-64
2022/06/29 01:44:24;;;;;;;12.37;11.03;;;;;;;20.95;100.00;99788.48;1783687;80;21438;-64
2022/06/29 01:46:50;;;;;;;13.93;11.75;;;;;;;20.95;100.00;99785.72;1778319;79;20972;-64
2022/06/29 01:49:17;;;;;;;11.80;10.70;;;;;;;20.96;100.00;99794.83;1774687;79;21692;-64
2022/06/29 01:51:43;;;;;;;13.53;11.22;;;;;;;20.91;100.00;99786.16;1756687;79;20977;-64
2022/06/29 01:54:10;;;;;;;12.65;11.30;;;;;;;20.90;100.00;99779.59;1787661;79;21642;-64
2022/06/29 01:56:36;;;;;;;12.37;11.18;;;;;;;20.93;100.00;99778.91;1701198;82;21040;-64
2022/06/29 01:59:04;;;;;;;12.90;11.60;;;;;;;20.88;100.00;99775.77;1767186;79;21005;-64
2022/06/29 02:01:31;;;;;;;13.13;11.60;;;;;;;20.81;100.00;99786.58;1776039;79;21573;-64
2022/06/29 02:03:57;;;;;;;13.25;11.10;;;;;;;20.79;100.00;99790.27;1766147;79;21691;-64
2022/06/29 02:06:24;;;;;;;12.15;10.95;;;;;;;20.84;100.00;99788.09;1775737;80;21086;-64
2022/06/29 02:08:52;;;;;;;12.63;10.98;;;;;;;20.85;100.00;99789.72;1774835;79;21082;-63
2022/06/29 02:11:19;;;;;;;12.40;10.50;;;;;;;20.85;100.00;99799.97;1756661;79;20976;-64
2022/06/29 02:13:46;;;;;;;13.13;11.55;;;;;;;20.81;100.00;99810.09;1771087;81;21043;-64
2022/06/29 02:16:13;;;;;;;13.28;11.20;;;;;;;20.81;100.00;99805.94;1769213;79;21863;-64
2022/06/29 02:18:40;;;;;;;12.82;11.53;;;;;;;20.83;100.00;99814.12;1776668;79;21059;-63
2022/06/29 02:21:08;;;;;;;11.97;10.75;;;;;;;20.83;100.00;99815.52;1777070;79;20948;-63
2022/06/29 02:23:35;;;;;;;12.82;11.63;;;;;;;20.83;100.00;99811.96;1774038;79;20992;-63
2022/06/29 02:26:01;;;;;;;12.85;11.20;;;;;;;20.84;100.00;99814.94;1767217;80;21003;-63
2022/06/29 02:28:28;;;;;;;12.93;11.45;;;;;;;20.82;100.00;99821.40;1715150;82;21503;-63
2022/06/29 02:36:26;;;;;;;12.73;11.30;;;;;;;20.75;100.00;99836.34;1764762;80;20951;-63
2022/06/29 02:38:53;;;;;;;13.22;12.03;;;;;;;20.75;100.00;99844.08;1760816;80;21091;-63
2022/06/29 02:41:19;;;;;;;14.15;12.35;;;;;;;20.81;100.00;99838.56;1762611;79;21428;-63
2022/06/29 02:43:46;;;;;;;13.50;12.05;;;;;;;20.85;100.00;99858.07;1778542;79;21505;-63
2022/06/29 02:46:13;;;;;;;13.80;12.33;;;;;;;20.83;100.00;99857.61;1768924;79;21039;-64
2022/06/29 02:48:40;;;;;;;15.60;13.18;;;;;;;20.87;100.00;99860.52;1770564;79;21098;-63
2022/06/29 02:51:06;;;;;;;17.35;12.78;;;;;;;20.93;100.00;99862.73;1767069;79;20990;-63
2022/06/29 02:53:33;;;;;;;13.75;12.35;;;;;;;21.01;100.00;99864.61;1768157;80;21095;-64
2022/06/29 02:55:59;;;;;;;15.08;13.60;;;;;;;21.08;100.00;99862.11;1780124;79;20957;-64
2022/06/29 02:58:26;;;;;;;15.08;13.58;;;;;;;21.15;100.00;99857.47;1771349;79;21118;-63
2022/06/29 03:00:52;;;;;;;13.88;12.47;;;;;;;21.24;100.00;99865.92;1772139;79;21079;-63
2022/06/29 03:03:19;;;;;;;15.05;13.48;;;;;;;21.29;100.00;99868.47;1770107;79;21141;-63
2022/06/29 03:05:46;;;;;;;16.35;14.33;;;;;;;21.38;100.00;99857.89;1752078;82;21430;-63
2022/06/29 03:08:13;;;;;;;15.90;14.40;;;;;;;21.39;100.00;99852.59;1777399;79;21147;-63
2022/06/29 03:10:40;;;;;;;15.38;13.80;;;;;;;21.39;100.00;99857.56;1761680;79;21474;-64
2022/06/29 03:13:07;;;;;;;13.95;12.55;;;;;;;21.44;100.00;99849.03;1767367;79;21075;-64
2022/06/29 03:15:34;;;;;;;20.17;13.40;;;;;;;21.54;100.00;99849.20;1752200;80;21046;-63
2022/06/29 03:18:00;;;;;;;14.85;13.43;;;;;;;21.60;100.00;99853.36;1770029;79;21700;-63
2022/06/29 03:20:28;;;;;;;16.45;12.03;;;;;;;21.66;100.00;99843.10;1766771;79;21074;-64
2022/06/29 03:22:54;;;;;;;12.98;11.65;;;;;;;21.74;100.00;99840.01;1778452;79;21637;-63
2022/06/29 03:25:21;;;;;;;13.70;12.25;;;;;;;21.88;100.00;99838.30;1753356;80;20995;-64
2022/06/29 03:27:48;;;;;;;13.32;12.13;;;;;;;22.02;100.00;99842.39;1766220;79;20967;-64
2022/06/29 03:30:15;;;;;;;13.35;12.03;;;;;;;22.13;100.00;99842.17;1767386;80;21459;-63
2022/06/29 03:32:41;;;;;;;14.13;12.25;;;;;;;22.24;100.00;99839.17;1777603;79;21007;-63
2022/06/29 03:35:08;;;;;;;12.28;11.08;;;;;;;22.37;100.00;99841.92;1758704;80;21062;-63
2022/06/29 03:37:35;;;;;;;12.28;11.15;;;;;;;22.52;100.00;99836.50;1787823;79;20963;-63
2022/06/29 03:40:02;;;;;;;13.08;11.68;;;;;;;22.63;100.00;99829.31;1758663;79;21509;-64
2022/06/29 03:42:29;;;;;;;13.50;12.20;;;;;;;22.75;100.00;99838.20;1772634;80;21307;-64
2022/06/29 03:44:56;;;;;;;14.90;13.45;;;;;;;22.80;100.00;99837.98;1775537;78;21590;-64
2022/06/29 03:47:23;;;;;;;14.73;13.08;;;;;;;22.75;100.00;99834.04;1734922;82;21321;-63
2022/06/29 03:49:49;;;;;;;14.65;13.15;;;;;;;22.76;100.00;99835.09;1748199;82;21554;-63
2022/06/29 03:52:16;;;;;;;13.15;11.95;;;;;;;22.86;100.00;99835.75;1714695;82;21436;-63
2022/06/29 03:54:43;;;;;;;13.30;12.10;;;;;;;22.95;100.00;99841.41;1715772;82;21151;-63
2022/06/29 03:57:09;;;;;;;13.53;12.25;;;;;;;23.00;100.00;99832.82;1715227;81;20953;-64
2022/06/29 03:59:36;;;;;;;14.15;12.60;;;;;;;23.07;100.00;99837.19;1734558;81;21036;-64
2022/06/29 04:02:03;;;;;;;13.83;12.43;;;;;;;23.20;100.00;99831.81;1740442;82;21705;-64
2022/06/29 04:04:30;;;;;;;13.55;12.15;;;;;;;23.41;100.00;99828.04;1723547;82;21102;-64
2022/06/29 04:06:58;;;;;;;14.50;13.10;;;;;;;23.64;100.00;99821.56;1709364;82;21074;-64
2022/06/29 04:09:25;;;;;;;12.98;11.63;;;;;;;23.78;100.00;99824.72;1724497;82;22234;-64
2022/06/29 04:11:53;;;;;;;13.55;12.13;;;;;;;23.79;100.00;99822.75;1709330;82;21047;-64
2022/06/29 04:14:25;;;;;;;13.38;11.85;;;;;;;23.55;100.00;99819.55;1737842;81;21105;-64
2022/06/29 04:16:53;;;;;;;14.45;12.00;;;;;;;23.55;100.00;99819.55;1761357;80;21001;-64
2022/06/29 04:19:20;;;;;;;13.78;12.47;;;;;;;23.48;100.00;99819.93;1753220;80;21583;-64
2022/06/29 04:21:47;;;;;;;13.80;12.47;;;;;;;23.49;100.00;99809.05;1748315;80;21488;-64
2022/06/29 04:24:15;;;;;;;15.00;13.60;;;;;;;23.56;100.00;99810.02;1748085;82;21503;-64
2022/06/29 04:26:42;;;;;;;14.58;13.20;;;;;;;23.59;100.00;99800.19;1723335;83;21094;-64
2022/06/29 04:29:09;;;;;;;15.23;13.83;;;;;;;23.59;100.00;99799.61;1727471;81;21063;-64
2022/06/29 04:31:35;;;;;;;17.95;15.80;;;;;;;23.57;100.00;99790.00;1729172;81;21419;-64
2022/06/29 04:34:03;;;;;;;16.80;15.00;;;;;;;23.56;100.00;99792.57;1711174;81;21099;-64
2022/06/29 04:36:30;;;;;;;16.42;14.70;;;;;;;23.54;100.00;99797.08;1717968;82;20989;-64
2022/06/29 04:38:57;;;;;;;16.62;14.93;;;;;;;23.59;100.00;99797.41;1717903;81;21102;-65
2022/06/29 04:41:24;;;;;;;16.10;14.65;;;;;;;24.35;100.00;99795.56;1739108;81;21444;-66
2022/06/29 04:43:50;;;;;;;15.50;14.00;;;;;;;24.35;100.00;99795.56;1716074;81;21579;-65
2022/06/29 04:46:20;;;;;;;16.00;14.50;;;;;;;24.89;100.00;99792.83;1722562;82;20957;-66
2022/06/29 04:48:53;;;;;;;14.90;13.50;;;;;;;25.47;100.00;99796.36;1711485;82;21104;-66
2022/06/29 04:51:20;;;;;;;14.80;13.08;;;;;;;26.02;100.00;99786.63;1787485;79;21040;-66
2022/06/29 04:53:47;;;;;;;15.25;13.70;;;;;;;26.44;100.00;99769.77;1763171;80;21064;-65
2022/06/29 04:56:15;;;;;;;14.60;13.10;;;;;;;26.81;100.00;99775.47;1780979;79;21428;-66
2022/06/29 04:58:42;;;;;;;13.60;12.40;;;;;;;27.11;100.00;99765.08;1782836;79;21963;-65
2022/06/29 05:01:09;;;;;;;13.80;12.40;;;;;;;27.36;100.00;99756.97;1791569;79;21296;-65
2022/06/29 05:03:36;;;;;;;13.68;12.25;;;;;;;27.64;100.00;99747.49;1773276;79;21067;-67
2022/06/29 05:06:03;;;;;;;14.90;13.40;;;;;;;27.90;100.00;99751.31;1761176;80;21065;-66
2022/06/29 05:08:30;;;;;;;13.95;12.58;;;;;;;28.16;100.00;99741.36;1763705;79;21065;-66
2022/06/29 05:10:57;;;;;;;13.90;12.45;;;;;;;28.30;100.00;99744.84;1789844;79;21060;-66
2022/06/29 05:13:23;;;;;;;12.65;11.45;;;;;;;28.47;100.00;99744.95;1782907;79;21092;-64
2022/06/29 05:15:51;;;;;;;11.68;10.48;;;;;;;28.69;100.00;99739.49;1757474;79;21312;-64
2022/06/29 05:18:19;;;;;;;11.45;10.32;;;;;;;28.86;100.00;99735.37;1781045;80;21072;-65
2022/06/29 05:20:46;;;;;;;12.73;11.53;;;;;;;29.12;100.00;99727.26;1780965;79;21427;-67
2022/06/29 05:23:14;;;;;;;12.73;11.40;;;;;;;29.30;100.00;99737.14;1779696;80;21144;-67
2022/06/29 05:25:41;;;;;;;12.43;11.25;;;;;;;29.55;100.00;99737.36;1769990;79;21035;-67
2022/06/29 05:28:08;;;;;;;11.75;10.55;;;;;;;29.85;100.00;99734.81;1760829;79;21075;-71
2022/06/29 05:30:35;;;;;;;12.13;10.82;;;;;;;30.22;100.00;99729.55;1783333;79;21938;-67
2022/06/29 05:33:02;;;;;;;11.25;10.13;;;;;;;30.53;100.00;99736.34;1783096;79;21558;-66
2022/06/29 05:35:33;;;;;;;12.37;9.70;;;;;;;30.85;100.00;99731.41;1775825;79;20988;-67
2022/06/29 05:37:58;;;;;;;10.93;9.88;;;;;;;31.25;100.00;99734.23;1700143;82;21164;-65
2022/06/29 05:40:25;;;;;;;11.40;9.83;;;;;;;31.54;100.00;99746.12;1739301;81;21039;-65
2022/06/29 05:42:52;;;;;;;10.70;9.70;;;;;;;31.79;100.00;99745.34;1770476;80;21592;-66
2022/06/29 05:45:19;;;;;;;10.60;9.60;;;;;;;32.08;100.00;99743.11;1743874;80;21011;-66
2022/06/29 05:47:46;;;;;;;10.35;9.45;;;;;;;32.43;100.00;99743.36;1679699;84;21030;-68
2022/06/29 05:50:13;;;;;;;10.75;9.68;;;;;;;32.73;100.00;99743.47;1730037;80;21027;-67
2022/06/29 05:52:40;;;;;;;10.45;9.48;;;;;;;33.07;100.00;99745.44;1735773;80;20984;-66
2022/06/29 05:55:08;;;;;;;11.22;10.03;;;;;;;33.45;100.00;99752.58;1679964;85;21007;-68
2022/06/29 05:57:35;;;;;;;10.45;9.45;;;;;;;33.63;100.00;99755.16;1677952;84;21001;-67
2022/06/29 06:00:04;;;;;;;10.82;9.48;;;;;;;33.77;100.00;99759.97;1738229;80;21033;-67
2022/06/29 06:02:32;;;;;;;10.23;9.13;;;;;;;33.89;98.91;99758.58;1738481;80;21059;-67
2022/06/29 06:04:59;;;;;;;10.98;9.98;;;;;;;33.93;90.89;99762.15;1735466;82;21019;-67
2022/06/29 06:07:26;;;;;;;10.25;9.00;;;;;;;34.06;89.93;99763.13;1726317;82;21035;-66
2022/06/29 06:09:53;;;;;;;8.93;7.95;;;;;;;34.24;88.57;99762.84;1748874;80;21109;-68
2022/06/29 06:12:20;;;;;;;9.90;8.90;;;;;;;34.21;86.37;99760.27;1748088;80;21052;-65
2022/06/29 06:14:48;;;;;;;8.23;7.42;;;;;;;34.08;81.27;99755.66;1717256;82;21134;-66
2022/06/29 06:17:15;;;;;;;8.00;7.22;;;;;;;34.04;78.42;99750.67;1725909;82;21024;-67
2022/06/29 06:19:42;;;;;;;8.08;7.37;;;;;;;34.05;78.01;99747.40;1764802;81;21084;-67
2022/06/29 06:22:08;;;;;;;7.83;7.03;;;;;;;34.17;73.07;99742.59;1763285;80;21076;-65
2022/06/29 06:24:35;;;;;;;7.40;6.60;;;;;;;34.24;69.09;99733.98;1730018;82;21852;-66
2022/06/29 06:27:02;;;;;;;8.90;7.25;;;;;;;34.23;64.55;99732.38;1710345;82;21310;-66
2022/06/29 06:29:28;;;;;;;8.78;6.50;;;;;;;34.60;70.16;99737.54;1732194;82;21087;-63
2022/06/29 06:31:55;;;;;;;9.03;7.60;;;;;;;34.99;72.22;99743.22;1748348;80;21441;-65
2022/06/29 06:34:23;;;;;;;8.48;7.67;;;;;;;35.33;66.45;99739.45;1738017;81;21457;-64
2022/06/29 06:36:50;;;;;;;7.47;6.78;;;;;;;35.28;63.26;99734.94;1741446;80;21027;-65
2022/06/29 06:39:16;;;;;;;7.92;6.50;;;;;;;35.37;65.34;99730.26;1718953;82;21529;-68
2022/06/29 06:41:43;;;;;;;7.25;6.65;;;;;;;35.50;64.96;99723.92;1720024;82;20981;-64
2022/06/29 06:44:09;;;;;;;7.67;6.75;;;;;;;35.58;61.62;99723.30;1743415;80;21012;-65
2022/06/29 06:46:37;;;;;;;6.92;6.33;;;;;;;35.73;64.89;99728.82;1766465;80;21493;-64
2022/06/29 06:49:03;;;;;;;6.60;5.92;;;;;;;35.78;54.90;99723.26;1741338;82;21574;-65
2022/06/29 06:51:30;;;;;;;6.97;5.78;;;;;;;35.34;52.39;99719.82;1715533;82;21018;-65
2022/06/29 06:53:56;;;;;;;7.60;6.37;;;;;;;35.29;57.43;99713.88;1744185;80;21002;-65
2022/06/29 06:56:23;;;;;;;6.40;5.72;;;;;;;35.59;55.12;99719.23;1691170;84;21018;-65
2022/06/29 06:58:53;;;;;;;6.78;6.03;;;;;;;35.93;53.62;99718.80;1750177;82;21114;-69
2022/06/29 07:01:20;;;;;;;8.10;6.12;;;;;;;36.46;53.69;99706.70;1745984;82;21610;-68
2022/06/29 07:03:47;;;;;;;6.95;6.12;;;;;;;36.65;52.76;99705.77;1749406;82;21031;-66
2022/06/29 07:06:14;;;;;;;7.12;6.42;;;;;;;36.71;48.78;99706.17;1759284;81;21055;-66
2022/06/29 07:08:41;;;;;;;7.20;6.30;;;;;;;36.21;48.63;99709.58;1744846;81;21092;-65
2022/06/29 07:11:08;;;;;;;7.22;6.15;;;;;;;35.71;52.97;99708.62;1724334;82;21456;-65
2022/06/29 07:13:35;;;;;;;7.35;6.65;;;;;;;35.43;53.70;99710.09;1723586;82;21075;-65
2022/06/29 07:16:04;;;;;;;6.72;6.03;;;;;;;35.28;54.44;99699.56;1749801;80;21576;-65
2022/06/29 07:18:33;;;;;;;9.28;6.62;;;;;;;35.42;57.32;99701.45;1763273;80;21062;-68
2022/06/29 07:21:00;;;;;;;6.75;6.12;;;;;;;35.62;60.16;99704.83;1740222;80;21035;-67
2022/06/29 07:23:31;;;;;;;5.85;5.35;;;;;;;36.01;59.23;99710.30;1739437;82;21076;-67
2022/06/29 07:25:57;;;;;;;7.35;6.22;;;;;;;36.57;54.92;99698.70;1739768;81;21538;-65
2022/06/29 07:28:24;;;;;;;7.15;6.15;;;;;;;37.01;49.35;99699.21;1689022;84;21036;-66
2022/06/29 07:30:51;;;;;;;7.12;6.45;;;;;;;36.90;50.98;99698.13;1668799;85;21039;-65
2022/06/29 07:33:18;;;;;;;6.58;5.97;;;;;;;36.83;47.94;99701.17;1675553;85;21095;-65
2022/06/29 07:35:44;;;;;;;6.53;5.92;;;;;;;36.53;48.56;99694.52;1655398;85;21018;-64
2022/06/29 07:38:11;;;;;;;6.12;5.62;;;;;;;35.97;49.70;99703.93;1758086;80;21068;-64
2022/06/29 07:40:37;;;;;;;8.23;6.47;;;;;;;35.69;48.10;99699.80;1751394;81;21609;-65
2022/06/29 07:43:04;;;;;;;6.35;5.72;;;;;;;35.80;49.21;99696.69;1730062;82;21143;-66
2022/06/29 07:45:31;;;;;;;4.90;4.50;;;;;;;35.91;47.39;99702.88;1754206;79;21037;-63
2022/06/29 07:47:57;;;;;;;5.67;4.95;;;;;;;36.09;49.27;99693.95;1795665;78;21072;-63
2022/06/29 07:50:24;;;;;;;5.22;4.55;;;;;;;36.07;45.23;99691.52;1786780;78;21566;-63
2022/06/29 07:52:51;;;;;;;5.85;5.25;;;;;;;36.02;46.25;99691.27;1786147;79;21035;-63
2022/06/29 07:55:18;;;;;;;7.33;5.83;;;;;;;36.26;46.63;99690.63;1791120;80;21061;-62
2022/06/29 07:57:45;;;;;;;5.90;5.03;;;;;;;36.53;47.74;99688.84;1791949;79;21030;-63
2022/06/29 08:00:12;;;;;;;8.73;6.10;;;;;;;36.69;50.48;99687.41;1782134;78;21524;-65
2022/06/29 08:02:39;;;;;;;6.72;5.97;;;;;;;37.01;47.73;99682.81;1776163;79;21030;-65
2022/06/29 08:05:06;;;;;;;7.45;5.30;;;;;;;37.26;46.63;99682.23;1693755;85;21011;-64
2022/06/29 08:07:34;;;;;;;8.53;6.15;;;;;;;37.32;44.29;99678.19;1730638;80;21015;-65
2022/06/29 08:10:03;;;;;;;7.15;6.10;;;;;;;37.24;45.68;99686.76;1730959;82;21083;-65
2022/06/29 08:12:31;;;;;;;6.47;5.87;;;;;;;37.20;46.72;99685.45;1720132;82;21503;-65
2022/06/29 08:14:58;;;;;;;7.00;6.15;;;;;;;37.41;46.02;99688.87;1729982;83;21015;-65
2022/06/29 08:17:25;;;;;;;6.17;5.60;;;;;;;37.64;44.70;99679.39;1722940;82;21562;-64
2022/06/29 08:19:52;;;;;;;9.00;6.50;;;;;;;37.68;44.48;99677.23;1740321;82;21155;-64
2022/06/29 08:22:20;;;;;;;9.75;6.30;;;;;;;37.85;45.54;99682.13;1721823;82;21040;-62
2022/06/29 08:24:46;;;;;;;6.80;6.20;;;;;;;38.01;43.19;99681.22;1734785;82;21745;-64
2022/06/29 08:27:14;;;;;;;7.00;6.40;;;;;;;37.91;43.40;99673.83;1750741;80;21075;-63
2022/06/29 08:29:40;;;;;;;7.62;6.62;;;;;;;37.73;45.03;99679.47;1712697;83;21634;-64
2022/06/29 08:32:07;;;;;;;6.60;5.97;;;;;;;37.53;44.45;99680.37;1737903;82;21057;-64
2022/06/29 08:34:38;;;;;;;8.53;6.83;;;;;;;37.35;45.70;99685.17;1742093;80;21042;-66
2022/06/29 08:37:03;;;;;;;8.75;6.17;;;;;;;37.20;43.99;99679.78;1752180;82;21029;-66
2022/06/29 08:39:30;;;;;;;7.90;6.30;;;;;;;36.79;46.75;99684.88;1741586;82;21057;-63
2022/06/29 08:42:01;;;;;;;8.13;6.45;;;;;;;36.79;48.83;99694.00;1732358;82;21041;-65
2022/06/29 08:44:29;;;;;;;6.58;5.83;;;;;;;36.78;46.93;99694.63;1733684;80;21069;-64
2022/06/29 08:46:55;;;;;;;7.72;6.15;;;;;;;36.72;47.81;99689.96;1748684;80;21043;-64
2022/06/29 08:49:23;;;;;;;7.10;6.40;;;;;;;36.87;49.06;99688.30;1768756;80;21055;-66
2022/06/29 08:51:49;;;;;;;8.00;6.70;;;;;;;36.89;48.44;99688.01;1725745;81;21063;-66
2022/06/29 08:54:16;;;;;;;7.08;6.08;;;;;;;36.82;49.10;99686.00;1724216;81;21043;-64
2022/06/29 08:56:43;;;;;;;6.33;5.70;;;;;;;36.76;46.86;99684.98;1730328;80;21018;-65
2022/06/29 08:59:09;;;;;;;7.80;6.20;;;;;;;36.78;47.68;99675.39;1709385;82;20999;-65
2022/06/29 09:01:37;;;;;;;6.72;6.10;;;;;;;36.71;49.96;99681.27;1767676;79;21004;-63
2022/06/29 09:04:04;;;;;;;7.08;6.37;;;;;;;36.36;48.76;99671.73;1773166;79;21026;-65
2022/06/29 09:06:31;;;;;;;7.15;6.45;;;;;;;35.99;50.96;99678.00;1754603;79;21007;-65
2022/06/29 09:08:57;;;;;;;10.00;6.60;;;;;;;35.57;51.43;99681.29;1765964;81;21044;-64
2022/06/29 09:11:29;;;;;;;7.05;6.35;;;;;;;35.30;52.44;99678.08;1752340;82;21106;-65
2022/06/29 09:14:12;;;;;;;7.40;6.58;;;;;;;35.07;54.11;99675.37;1770768;79;21004;-66
2022/06/29 09:17:00;;;;;;;6.60;6.08;;;;;;;34.88;53.77;99683.26;1755421;80;21083;-64
2022/06/29 09:19:41;;;;;;;7.28;6.58;;;;;;;34.68;57.96;99680.47;1768144;80;21621;-65
2022/06/29 09:22:09;;;;;;;7.35;6.58;;;;;;;34.62;61.81;99685.59;1760860;79;21026;-63
2022/06/29 09:24:36;;;;;;;7.30;6.60;;;;;;;34.57;57.94;99671.99;1777347;79;21076;-66
2022/06/29 09:27:05;;;;;;;6.65;6.10;;;;;;;34.52;59.74;99667.63;1772886;79;21522;-66
2022/06/29 09:29:39;;;;;;;7.30;6.65;;;;;;;34.13;57.84;99663.38;1773952;79;21075;-66
2022/06/29 09:32:09;;;;;;;8.70;6.53;;;;;;;34.00;60.56;99663.98;1771478;79;21046;-64
2022/06/29 09:34:49;;;;;;;9.30;6.90;;;;;;;34.06;60.80;99659.23;1769858;80;21064;-65
2022/06/29 09:37:22;;;;;;;7.78;6.60;;;;;;;34.17;58.82;99668.34;1761320;79;21007;-66
2022/06/29 09:39:54;;;;;;;6.92;6.05;;;;;;;34.22;60.55;99666.44;1758805;79;21048;-67
2022/06/29 09:42:26;;;;;;;7.05;6.35;;;;;;;34.11;56.42;99659.55;1765372;79;21534;-65
2022/06/29 09:44:53;;;;;;;7.40;6.42;;;;;;;33.90;57.65;99651.48;1789144;79;21557;-66
2022/06/29 09:47:21;;;;;;;10.40;6.78;;;;;;;33.90;70.56;99651.48;1782336;78;21044;-67
2022/06/29 09:50:01;;;;;;;9.33;6.72;;;;;;;34.13;64.36;99652.88;1774804;80;21023;-67
2022/06/29 09:52:28;;;;;;;6.53;5.92;;;;;;;34.26;60.35;99644.58;1782255;79;21720;-65
2022/06/29 09:54:57;;;;;;;7.10;6.50;;;;;;;34.11;57.15;99646.04;1780742;78;21538;-66
2022/06/29 09:57:29;;;;;;;7.00;6.12;;;;;;;34.11;58.00;99647.45;1776186;78;21085;-65
2022/06/29 10:03:20;;;;;;;9.63;6.67;;;;;;;34.03;57.53;99641.75;1740947;81;21125;-67
2022/06/29 10:06:04;;;;;;;7.15;6.45;;;;;;;33.75;55.21;99633.19;1740320;81;21038;-66
2022/06/29 10:08:27;;;;;;;6.80;6.10;;;;;;;33.60;59.04;99634.02;1689681;83;21065;-67
2022/06/29 10:10:58;;;;;;;7.22;6.53;;;;;;;33.55;60.30;99633.73;1691680;84;20984;-65
2022/06/29 10:13:42;;;;;;;7.00;6.30;;;;;;;33.63;59.89;99638.03;1689083;84;21121;-67
2022/06/29 10:16:36;;;;;;;9.00;6.53;;;;;;;33.70;57.63;99625.20;1665354;84;21051;-68
2022/06/29 10:19:41;;;;;;;8.38;6.50;;;;;;;33.69;56.62;99627.26;1698949;83;21730;-66
2022/06/29 10:22:07;;;;;;;6.60;5.97;;;;;;;33.77;51.96;99613.17;1691658;84;20975;-68
2022/06/29 10:24:37;;;;;;;5.83;5.30;;;;;;;33.84;52.70;99615.87;1683368;82;21043;-67
2022/06/29 10:27:06;;;;;;;6.08;5.47;;;;;;;33.93;52.26;99607.64;1695428;83;20998;-65
2022/06/29 10:29:33;;;;;;;6.67;5.72;;;;;;;34.01;50.34;99598.42;1702404;83;21082;-66
2022/06/29 10:32:11;;;;;;;6.40;5.80;;;;;;;34.05;51.20;99592.70;1691081;84;21330;-69
2022/06/29 10:35:05;;;;;;;6.40;5.83;;;;;;;34.14;50.50;99588.71;1696841;83;21656;-68
2022/06/29 10:37:15;;;;;;;6.90;5.90;;;;;;;34.32;49.24;99584.91;1657393;84;21066;-66
2022/06/29 10:39:51;;;;;;;8.68;6.30;;;;;;;34.32;49.24;99588.53;1678713;84;21626;-68
2022/06/29 10:45:24;;;;;;;6.37;5.80;;;;;;;34.22;50.64;99573.22;1679331;84;21065;-71
2022/06/29 10:48:07;;;;;;;7.20;5.90;;;;;;;34.34;50.63;99569.72;1702250;84;21071;-66
2022/06/29 10:50:31;;;;;;;6.12;5.53;;;;;;;34.45;48.27;99565.44;1685125;84;21208;-65
2022/06/29 10:53:11;;;;;;;7.70;5.75;;;;;;;34.50;51.24;99575.44;1686520;84;21072;-67
2022/06/29 10:55:44;;;;;;;7.20;5.60;;;;;;;34.51;49.34;99572.00;1696810;84;20987;-67
2022/06/29 10:58:10;;;;;;;7.50;5.70;;;;;;;34.52;50.65;99582.05;1696639;83;21064;-69
2022/06/29 11:00:41;;;;;;;5.97;5.42;;;;;;;34.46;47.63;99577.53;1695768;84;21019;-65
2022/06/29 11:03:26;;;;;;;5.50;4.90;;;;;;;34.29;49.68;99578.72;1723305;82;21093;-67
2022/06/29 11:16:58;;;;;;;5.70;5.20;;;;;;;34.19;46.05;99552.91;1725074;82;21619;-67
2022/06/29 11:19:38;;;;;;;7.08;6.35;;;;;;;34.14;49.90;99551.37;1713752;82;21094;-67
2022/06/29 11:22:17;;;;;;;6.85;6.15;;;;;;;34.21;49.09;99547.61;1724079;82;21035;-68
2022/06/29 11:24:54;;;;;;;6.60;5.92;;;;;;;34.24;49.13;99548.94;1723332;82;21234;-67
2022/06/29 11:27:36;;;;;;;8.05;5.70;;;;;;;34.32;46.99;99551.00;1717919;82;21585;-66
2022/06/29 11:30:06;;;;;;;6.35;5.58;;;;;;;34.34;46.14;99542.88;1728582;82;21031;-65
2022/06/29 11:32:44;;;;;;;6.53;5.92;;;;;;;34.35;46.71;99531.76;1749816;80;21046;-66
2022/06/29 11:35:13;;;;;;;6.65;5.67;;;;;;;34.32;47.49;99524.16;1740258;82;21038;-67
2022/06/29 11:37:52;;;;;;;6.08;5.47;;;;;;;34.28;51.24;99516.38;1728986;82;21019;-68
2022/06/29 11:40:35;;;;;;;6.75;6.05;;;;;;;34.29;58.63;99508.09;1694416;83;21039;-67
2022/06/29 11:43:05;;;;;;;8.85;6.87;;;;;;;34.35;54.90;99508.55;1693899;83;21063;-67
2022/06/29 11:45:46;;;;;;;6.55;5.95;;;;;;;34.53;52.14;99498.86;1671477;85;21586;-67
2022/06/29 11:48:24;;;;;;;10.35;5.90;;;;;;;34.57;50.01;99490.48;1673407;84;21642;-68
2022/06/29 11:50:59;;;;;;;8.93;6.42;;;;;;;34.55;51.30;99484.46;1674821;84;21061;-67